Time;durP1;ratioP1;P1;durP2;ratioP2;P2;SDS_P1;SDS_P2;PMS_P1;PMS_P2;Temp;Humidity;BMP_temperature;BMP_pressure;BME280_temperature;BME280_humidity;BME280_pressure;Samples;Min_cycle;Max_cycle;Signal;HPM_P1;HPM_P2
2021/08/09 00:00:51;;;;;;;2.13;1.85;;;16.60;1.00;;;;;;5071974;28;20428;-81
2021/08/09 00:03:16;;;;;;;3.97;1.90;;;16.70;1.00;;;;;;5071194;28;20381;-81
2021/08/09 00:05:42;;;;;;;5.05;1.90;;;16.70;1.00;;;;;;5071631;28;20028;-81
2021/08/09 00:08:08;;;;;;;3.45;1.92;;;16.50;1.00;;;;;;5072681;28;20027;-81
2021/08/09 00:10:34;;;;;;;3.13;2.25;;;16.40;1.00;;;;;;5072627;28;20115;-81
2021/08/09 00:12:59;;;;;;;2.22;1.60;;;16.40;1.00;;;;;;5071298;28;20024;-80
2021/08/09 00:15:26;;;;;;;3.00;1.75;;;16.50;1.00;;;;;;5071145;28;20028;-81
2021/08/09 00:17:51;;;;;;;6.35;2.08;;;16.50;1.00;;;;;;5071425;28;20031;-81
2021/08/09 00:20:18;;;;;;;3.17;1.65;;;16.40;1.00;;;;;;5071324;28;20045;-81
2021/08/09 00:22:45;;;;;;;5.35;1.80;;;16.30;1.00;;;;;;5073784;28;20017;-80
2021/08/09 00:25:11;;;;;;;4.78;1.90;;;16.30;1.00;;;;;;5070436;28;20219;-81
2021/08/09 00:27:37;;;;;;;3.75;1.63;;;16.30;1.00;;;;;;5070275;28;20416;-81
2021/08/09 00:30:04;;;;;;;7.93;2.00;;;16.10;1.00;;;;;;5071239;28;20021;-81
2021/08/09 00:32:29;;;;;;;3.95;2.03;;;16.10;1.00;;;;;;5064787;28;20083;-80
2021/08/09 00:34:55;;;;;;;1.95;1.75;;;16.10;1.00;;;;;;5073002;28;20029;-81
2021/08/09 00:37:20;;;;;;;4.10;1.90;;;16.10;1.00;;;;;;5071112;28;20370;-81
2021/08/09 00:39:46;;;;;;;2.90;1.88;;;16.10;1.00;;;;;;5070361;28;20040;-80
2021/08/09 00:42:11;;;;;;;2.63;1.67;;;16.00;1.00;;;;;;5070823;28;20056;-81
2021/08/09 00:44:37;;;;;;;2.90;1.98;;;15.80;1.00;;;;;;5068630;28;20043;-81
2021/08/09 00:47:03;;;;;;;2.58;1.90;;;15.80;1.00;;;;;;5071776;28;20048;-81
2021/08/09 00:49:29;;;;;;;4.82;2.05;;;15.80;1.00;;;;;;5071668;28;20028;-80
2021/08/09 00:51:56;;;;;;;4.53;2.22;;;15.80;1.00;;;;;;5070375;28;20093;-81
2021/08/09 00:54:23;;;;;;;4.03;1.80;;;15.70;1.00;;;;;;5070034;28;20493;-81
2021/08/09 00:56:49;;;;;;;4.80;1.83;;;15.70;1.00;;;;;;5052973;28;20032;-80
2021/08/09 00:59:15;;;;;;;4.57;1.83;;;15.60;1.00;;;;;;5071179;28;20024;-81
2021/08/09 01:01:40;;;;;;;2.47;1.95;;;15.60;1.00;;;;;;5069801;28;20031;-81
2021/08/09 01:04:08;;;;;;;1.73;1.63;;;15.60;1.00;;;;;;5070080;28;20028;-81
2021/08/09 01:06:34;;;;;;;3.20;1.90;;;15.60;1.00;;;;;;5070120;28;20044;-81
2021/08/09 01:09:09;;;;;;;2.45;2.00;;;15.60;1.00;;;;;;5069006;28;20019;-81
2021/08/09 01:11:58;;;;;;;2.58;1.70;;;15.50;1.00;;;;;;5055031;28;20029;-81
2021/08/09 01:14:47;;;;;;;3.00;1.80;;;15.60;1.00;;;;;;5068788;28;20097;-81
2021/08/09 01:17:14;;;;;;;4.03;1.90;;;15.50;1.00;;;;;;5050632;28;20361;-81
2021/08/09 01:20:00;;;;;;;3.78;1.80;;;15.40;1.00;;;;;;5072022;28;20070;-80
2021/08/09 01:22:44;;;;;;;2.92;2.20;;;15.40;1.00;;;;;;5070566;28;20024;-80
2021/08/09 01:25:19;;;;;;;1.60;1.50;;;15.40;1.00;;;;;;5070232;28;20067;-80
2021/08/09 01:27:48;;;;;;;5.35;1.90;;;15.30;1.00;;;;;;5069505;28;20119;-81
2021/08/09 01:30:15;;;;;;;2.15;1.73;;;15.20;1.00;;;;;;5068928;28;20431;-80
2021/08/09 01:32:43;;;;;;;5.45;1.70;;;15.30;1.00;;;;;;5070283;28;20032;-80
2021/08/09 01:35:10;;;;;;;2.83;2.00;;;15.40;1.00;;;;;;5071064;28;20111;-80
2021/08/09 01:37:40;;;;;;;2.83;1.98;;;15.40;1.00;;;;;;5070514;28;20097;-80
2021/08/09 01:40:08;;;;;;;2.08;1.75;;;15.30;1.00;;;;;;5069854;28;20111;-80
2021/08/09 01:42:36;;;;;;;2.65;1.65;;;15.20;1.00;;;;;;5069956;28;20595;-80
2021/08/09 01:45:02;;;;;;;3.05;2.00;;;15.10;1.00;;;;;;5068569;28;20036;-80
2021/08/09 01:47:27;;;;;;;3.35;1.95;;;15.10;1.00;;;;;;5069138;28;20496;-80
2021/08/09 01:49:54;;;;;;;3.67;2.00;;;15.10;1.00;;;;;;5071363;28;20024;-80
2021/08/09 01:52:20;;;;;;;4.30;1.90;;;15.00;1.00;;;;;;5067737;28;20039;-80
2021/08/09 01:54:48;;;;;;;3.03;1.88;;;15.10;1.00;;;;;;5069878;28;20033;-80
2021/08/09 01:57:13;;;;;;;3.53;2.10;;;15.10;1.00;;;;;;5069281;28;20073;-80
2021/08/09 01:59:40;;;;;;;3.50;2.03;;;14.90;1.00;;;;;;5068832;28;20498;-81
2021/08/09 02:02:06;;;;;;;4.45;1.80;;;14.90;1.00;;;;;;5070889;28;20021;-80
2021/08/09 02:04:31;;;;;;;4.15;1.73;;;14.90;1.00;;;;;;5069824;28;20512;-80
2021/08/09 02:06:57;;;;;;;9.30;1.95;;;14.80;1.00;;;;;;5070004;28;20393;-80
2021/08/09 02:09:23;;;;;;;4.35;1.83;;;14.80;1.00;;;;;;5069052;28;20032;-80
2021/08/09 02:11:59;;;;;;;4.80;2.00;;;14.80;1.00;;;;;;5069785;28;20025;-80
2021/08/09 02:14:28;;;;;;;2.63;1.70;;;14.80;1.00;;;;;;5068151;28;20720;-80
2021/08/09 02:17:27;;;;;;;2.95;1.63;;;14.80;1.00;;;;;;5071382;28;20032;-80
2021/08/09 02:20:03;;;;;;;2.55;1.40;;;14.80;1.00;;;;;;5069691;28;20029;-80
2021/08/09 02:22:37;;;;;;;1.63;1.50;;;14.80;1.00;;;;;;5069175;28;20555;-80
2021/08/09 02:25:13;;;;;;;4.13;1.90;;;14.70;1.00;;;;;;5069553;28;20097;-80
2021/08/09 02:28:03;;;;;;;3.05;1.70;;;14.80;1.00;;;;;;5067643;28;20017;-80
2021/08/09 02:30:29;;;;;;;2.75;1.80;;;14.80;1.00;;;;;;5068543;28;20485;-80
2021/08/09 02:32:58;;;;;;;4.10;1.60;;;14.80;1.00;;;;;;5069340;28;20435;-80
2021/08/09 02:35:26;;;;;;;3.08;1.85;;;14.80;1.00;;;;;;5069118;28;20024;-80
2021/08/09 02:37:52;;;;;;;4.47;1.70;;;14.70;1.00;;;;;;5071876;28;20473;-80
2021/08/09 02:40:19;;;;;;;3.67;1.60;;;14.70;1.00;;;;;;5068986;28;20497;-80
2021/08/09 02:42:45;;;;;;;2.58;1.50;;;14.70;1.00;;;;;;5068079;28;20085;-80
2021/08/09 02:45:12;;;;;;;3.58;1.70;;;14.70;1.00;;;;;;5069075;28;20547;-80
2021/08/09 02:47:40;;;;;;;3.90;1.85;;;14.80;1.00;;;;;;5069169;28;20593;-80
2021/08/09 02:50:09;;;;;;;3.90;1.90;;;14.80;1.00;;;;;;5070735;28;20381;-81
2021/08/09 02:52:40;;;;;;;2.78;1.90;;;14.80;1.00;;;;;;5073456;28;20477;-80
2021/08/09 02:55:08;;;;;;;3.58;1.90;;;14.80;1.00;;;;;;5073358;28;20039;-80
2021/08/09 02:57:35;;;;;;;4.63;1.90;;;14.80;1.00;;;;;;5071482;28;20036;-80
2021/08/09 03:00:01;;;;;;;5.55;2.10;;;14.80;1.00;;;;;;5072784;28;20035;-80
2021/08/09 03:02:29;;;;;;;4.05;1.80;;;14.80;1.00;;;;;;5072561;28;20485;-80
2021/08/09 03:04:57;;;;;;;5.20;1.80;;;14.80;1.00;;;;;;5074111;28;20063;-80
2021/08/09 03:07:24;;;;;;;3.15;1.80;;;14.70;1.00;;;;;;5071407;28;20028;-80
2021/08/09 03:09:50;;;;;;;4.60;1.90;;;14.70;1.00;;;;;;5070830;28;20028;-80
2021/08/09 03:12:18;;;;;;;2.38;1.80;;;14.80;1.00;;;;;;5070992;28;20028;-80
2021/08/09 03:14:50;;;;;;;4.25;1.80;;;14.70;1.00;;;;;;5072708;28;20021;-80
2021/08/09 03:17:16;;;;;;;4.95;1.83;;;14.70;1.00;;;;;;5072821;28;20029;-80
2021/08/09 03:19:42;;;;;;;2.35;1.73;;;14.60;1.00;;;;;;5073688;28;20055;-80
2021/08/09 03:22:10;;;;;;;2.83;1.70;;;14.70;1.00;;;;;;5072390;28;20064;-81
2021/08/09 03:24:36;;;;;;;3.20;1.63;;;14.60;1.00;;;;;;5072497;28;20021;-80
2021/08/09 03:27:02;;;;;;;2.30;1.73;;;14.70;1.00;;;;;;5071354;28;20469;-80
2021/08/09 03:29:27;;;;;;;4.18;1.80;;;14.60;1.00;;;;;;5072634;28;20107;-81
2021/08/09 03:31:53;;;;;;;4.85;2.17;;;14.60;1.00;;;;;;5073978;28;20031;-80
2021/08/09 03:34:19;;;;;;;2.05;1.65;;;14.60;1.00;;;;;;5071943;28;20020;-80
2021/08/09 03:36:46;;;;;;;3.03;2.25;;;14.60;1.00;;;;;;5072107;28;20028;-80
2021/08/09 03:39:12;;;;;;;3.58;2.15;;;14.70;1.00;;;;;;5072047;28;20115;-80
2021/08/09 03:41:38;;;;;;;3.63;1.92;;;14.70;1.00;;;;;;5071367;28;20017;-80
2021/08/09 03:44:05;;;;;;;3.55;2.15;;;14.70;1.00;;;;;;5073517;28;20605;-80
2021/08/09 03:46:31;;;;;;;2.28;1.80;;;14.80;1.00;;;;;;5070544;28;20123;-80
2021/08/09 03:48:57;;;;;;;4.78;1.98;;;14.80;1.00;;;;;;5070182;28;20074;-80
2021/08/09 03:51:22;;;;;;;2.35;1.85;;;14.90;1.00;;;;;;5071860;28;20489;-80
2021/08/09 03:53:48;;;;;;;6.05;2.00;;;14.90;1.00;;;;;;5054815;28;20020;-80
2021/08/09 03:56:14;;;;;;;2.10;1.70;;;14.80;1.00;;;;;;5072844;28;20147;-80
2021/08/09 03:58:39;;;;;;;3.03;1.80;;;14.80;1.00;;;;;;5072082;28;20074;-81
2021/08/09 04:01:07;;;;;;;6.00;1.90;;;14.80;1.00;;;;;;5051803;28;20028;-80
2021/08/09 04:03:32;;;;;;;4.15;2.08;;;14.80;1.00;;;;;;5070087;28;20020;-80
2021/08/09 04:05:58;;;;;;;3.58;2.03;;;14.80;1.00;;;;;;5071723;28;20119;-80
2021/08/09 04:08:23;;;;;;;5.30;2.10;;;14.80;1.00;;;;;;5071316;28;20071;-80
2021/08/09 04:10:49;;;;;;;2.53;2.00;;;14.80;1.00;;;;;;5073279;28;20361;-80
2021/08/09 04:13:15;;;;;;;3.92;1.88;;;14.80;1.00;;;;;;5069717;28;20453;-80
2021/08/09 04:15:40;;;;;;;3.75;1.85;;;14.80;1.00;;;;;;5071239;28;20040;-80
2021/08/09 04:18:06;;;;;;;3.38;2.03;;;14.90;1.00;;;;;;5071011;28;20052;-81
2021/08/09 04:20:32;;;;;;;5.75;2.25;;;14.90;1.00;;;;;;5071235;28;20048;-80
2021/08/09 04:22:57;;;;;;;5.20;1.90;;;14.80;1.00;;;;;;5073249;28;20070;-80
2021/08/09 04:25:25;;;;;;;3.70;1.73;;;14.80;1.00;;;;;;5070102;28;20067;-80
2021/08/09 04:27:50;;;;;;;2.50;1.95;;;14.80;1.00;;;;;;5068404;28;20017;-80
2021/08/09 04:30:16;;;;;;;2.67;1.80;;;14.80;1.00;;;;;;5071407;28;20396;-80
2021/08/09 04:32:42;;;;;;;2.10;1.90;;;14.80;1.00;;;;;;5070633;28;20074;-81
2021/08/09 04:35:10;;;;;;;3.15;1.70;;;14.80;1.00;;;;;;5072410;28;20028;-80
2021/08/09 04:37:37;;;;;;;2.60;1.65;;;14.90;1.00;;;;;;5071562;28;20552;-80
2021/08/09 04:40:04;;;;;;;3.65;1.70;;;14.90;1.00;;;;;;5070825;28;20040;-80
2021/08/09 04:42:30;;;;;;;3.70;1.70;;;15.00;1.00;;;;;;5069701;28;20017;-80
2021/08/09 04:44:56;;;;;;;4.95;1.75;;;15.00;1.00;;;;;;5070928;28;20397;-81
2021/08/09 04:47:21;;;;;;;3.55;1.67;;;15.10;1.00;;;;;;5070311;28;20055;-80
2021/08/09 04:49:47;;;;;;;3.75;1.75;;;15.10;1.00;;;;;;5072463;28;20519;-80
2021/08/09 04:52:13;;;;;;;3.83;1.90;;;15.10;1.00;;;;;;5070711;28;20493;-80
2021/08/09 04:54:38;;;;;;;1.60;1.50;;;15.10;1.00;;;;;;5070393;28;20021;-80
2021/08/09 04:57:04;;;;;;;2.15;1.60;;;15.20;1.00;;;;;;5069774;28;20115;-80
2021/08/09 04:59:29;;;;;;;3.92;1.83;;;15.20;1.00;;;;;;5070546;28;20075;-80
2021/08/09 05:01:55;;;;;;;2.20;1.60;;;15.20;1.00;;;;;;5072153;28;20477;-80
2021/08/09 05:04:21;;;;;;;2.75;1.75;;;15.20;1.00;;;;;;5069270;28;20028;-80
2021/08/09 05:06:49;;;;;;;3.03;1.98;;;15.20;1.00;;;;;;5068945;28;20504;-80
2021/08/09 05:09:15;;;;;;;3.25;1.95;;;15.30;1.00;;;;;;5070453;28;20025;-80
2021/08/09 05:11:41;;;;;;;3.75;1.80;;;15.30;1.00;;;;;;5069643;28;20042;-80
2021/08/09 05:14:07;;;;;;;4.90;1.90;;;15.20;1.00;;;;;;5071190;28;20103;-80
2021/08/09 05:16:35;;;;;;;4.43;1.80;;;15.20;1.00;;;;;;5070256;28;20106;-80
2021/08/09 05:19:03;;;;;;;3.88;1.90;;;15.20;1.00;;;;;;5069958;28;20079;-80
2021/08/09 05:21:33;;;;;;;4.55;1.90;;;15.10;1.00;;;;;;5070235;28;20453;-80
2021/08/09 05:24:04;;;;;;;2.80;1.85;;;15.00;1.00;;;;;;5070603;28;20389;-80
2021/08/09 05:26:30;;;;;;;4.75;1.95;;;15.20;1.00;;;;;;5051701;28;20401;-80
2021/08/09 05:28:58;;;;;;;2.10;1.90;;;15.30;1.00;;;;;;5072049;28;20055;-80
2021/08/09 05:31:24;;;;;;;2.17;1.65;;;15.50;1.00;;;;;;5069626;28;20062;-80
2021/08/09 05:33:50;;;;;;;3.15;1.98;;;15.60;1.00;;;;;;5070066;28;20052;-80
2021/08/09 05:36:15;;;;;;;3.22;1.90;;;15.70;1.00;;;;;;5069890;28;20413;-80
2021/08/09 05:38:41;;;;;;;4.20;2.28;;;15.70;1.00;;;;;;5070082;28;20099;-80
2021/08/09 05:41:07;;;;;;;3.33;1.95;;;15.70;1.00;;;;;;5069962;28;20046;-80
2021/08/09 05:43:33;;;;;;;2.13;1.73;;;15.70;1.00;;;;;;5069429;28;20120;-80
2021/08/09 05:45:59;;;;;;;3.28;1.92;;;15.80;1.00;;;;;;5067328;28;20437;-81
2021/08/09 05:48:24;;;;;;;2.35;1.73;;;15.70;1.00;;;;;;5069709;28;20090;-80
2021/08/09 05:50:50;;;;;;;1.80;1.70;;;15.90;1.00;;;;;;5069919;28;20085;-80
2021/08/09 05:53:15;;;;;;;3.22;1.80;;;15.90;1.00;;;;;;5069801;28;20032;-80
2021/08/09 05:55:41;;;;;;;3.70;1.90;;;15.80;1.00;;;;;;5070166;28;20115;-80
2021/08/09 05:58:07;;;;;;;4.18;2.03;;;16.00;1.00;;;;;;5069727;28;20122;-80
2021/08/09 06:00:33;;;;;;;4.45;1.80;;;16.10;1.00;;;;;;5069555;28;20025;-80
2021/08/09 06:02:58;;;;;;;3.45;1.92;;;16.20;1.00;;;;;;5068658;28;20404;-80
2021/08/09 06:05:25;;;;;;;2.28;1.80;;;16.20;1.00;;;;;;5069633;28;20033;-80
2021/08/09 06:07:50;;;;;;;4.90;2.00;;;16.30;1.00;;;;;;5071347;28;20024;-80
2021/08/09 06:10:16;;;;;;;2.85;1.90;;;16.40;1.00;;;;;;5068761;28;20021;-80
2021/08/09 06:12:41;;;;;;;4.50;1.90;;;16.50;1.00;;;;;;5050986;28;20029;-80
2021/08/09 06:15:08;;;;;;;4.22;2.20;;;16.40;1.00;;;;;;5069540;28;20028;-80
2021/08/09 06:17:34;;;;;;;6.88;2.65;;;16.50;1.00;;;;;;5069521;28;20517;-80
2021/08/09 06:20:01;;;;;;;4.25;2.63;;;16.50;1.00;;;;;;5066783;28;20029;-80
2021/08/09 06:22:26;;;;;;;3.17;1.80;;;16.80;1.00;;;;;;5068175;28;20090;-81
2021/08/09 06:24:52;;;;;;;5.55;2.17;;;16.60;1.00;;;;;;5066364;28;20036;-80
2021/08/09 06:27:18;;;;;;;4.70;1.83;;;16.80;1.00;;;;;;5073332;28;20041;-80
2021/08/09 06:29:44;;;;;;;2.53;1.75;;;17.00;1.00;;;;;;5073348;28;20021;-80
2021/08/09 06:32:09;;;;;;;2.97;1.80;;;17.10;1.00;;;;;;5074635;28;20527;-80
2021/08/09 06:34:35;;;;;;;4.22;1.88;;;17.20;1.00;;;;;;5074102;28;20035;-80
2021/08/09 06:37:01;;;;;;;6.25;1.90;;;17.40;1.00;;;;;;5073047;28;20284;-80
2021/08/09 06:39:26;;;;;;;4.55;1.80;;;17.50;1.00;;;;;;5072008;28;20063;-80
2021/08/09 06:41:52;;;;;;;2.63;1.90;;;17.50;1.00;;;;;;5072865;28;20017;-80
2021/08/09 06:44:18;;;;;;;5.05;2.13;;;17.50;1.00;;;;;;5073009;28;20054;-80
2021/08/09 06:46:44;;;;;;;2.83;2.10;;;17.50;1.00;;;;;;5057271;28;20071;-81
2021/08/09 06:49:09;;;;;;;2.97;2.25;;;17.60;1.00;;;;;;5071754;28;20009;-80
2021/08/09 06:51:35;;;;;;;6.72;2.22;;;17.50;1.00;;;;;;5072956;28;20033;-81
2021/08/09 06:54:01;;;;;;;3.97;1.90;;;17.70;1.00;;;;;;5072144;28;20060;-81
2021/08/09 06:56:26;;;;;;;3.42;1.67;;;17.70;1.00;;;;;;5072765;28;20395;-80
2021/08/09 06:58:52;;;;;;;6.05;1.88;;;18.00;1.00;;;;;;5074611;28;20059;-80
2021/08/09 07:01:17;;;;;;;2.38;1.65;;;18.20;1.00;;;;;;5071417;28;20143;-80
2021/08/09 07:03:45;;;;;;;4.53;2.00;;;18.40;1.00;;;;;;5070871;28;20021;-81
2021/08/09 07:06:21;;;;;;;4.85;2.03;;;18.60;1.00;;;;;;5072371;28;20485;-81
2021/08/09 07:08:48;;;;;;;3.03;1.90;;;18.60;99.90;;;;;;5071507;28;20468;-81
2021/08/09 07:11:14;;;;;;;2.92;1.52;;;18.40;99.90;;;;;;5072315;28;20048;-80
2021/08/09 07:13:40;;;;;;;2.88;2.05;;;18.50;99.90;;;;;;5073878;28;20105;-80
2021/08/09 07:16:06;;;;;;;3.53;1.70;;;18.70;99.90;;;;;;5056003;28;20469;-81
2021/08/09 07:18:32;;;;;;;7.53;1.73;;;19.00;99.90;;;;;;5072169;28;20404;-80
2021/08/09 07:20:58;;;;;;;2.88;2.00;;;19.30;99.90;;;;;;5072489;28;20021;-80
2021/08/09 07:23:24;;;;;;;2.05;1.60;;;19.30;99.90;;;;;;5072335;28;20523;-81
2021/08/09 07:25:50;;;;;;;2.35;1.65;;;19.50;99.90;;;;;;5072958;28;20040;-81
2021/08/09 07:28:15;;;;;;;2.58;1.50;;;19.70;99.90;;;;;;5072764;28;20032;-80
2021/08/09 07:30:41;;;;;;;1.98;1.50;;;19.80;99.90;;;;;;5071987;28;20040;-81
2021/08/09 07:33:07;;;;;;;2.65;1.70;;;19.70;99.90;;;;;;5071714;28;20025;-80
2021/08/09 07:35:33;;;;;;;3.88;2.00;;;20.00;99.90;;;;;;5072670;28;20102;-80
2021/08/09 07:37:59;;;;;;;4.38;1.90;;;20.10;99.90;;;;;;5073630;28;20054;-81
2021/08/09 07:40:24;;;;;;;3.03;1.70;;;20.20;99.90;;;;;;5069561;28;20032;-80
2021/08/09 07:42:50;;;;;;;3.25;1.90;;;20.20;99.90;;;;;;5070544;28;20024;-81
2021/08/09 07:45:16;;;;;;;2.20;1.92;;;20.10;99.90;;;;;;5071901;28;20035;-80
2021/08/09 07:47:41;;;;;;;3.35;1.75;;;20.40;99.90;;;;;;5071744;28;20068;-80
2021/08/09 07:50:07;;;;;;;3.28;1.80;;;20.30;99.90;;;;;;5073315;28;20052;-81
2021/08/09 07:52:33;;;;;;;2.53;1.60;;;20.50;99.90;;;;;;5054153;28;20052;-80
2021/08/09 07:54:59;;;;;;;2.53;1.88;;;20.50;99.90;;;;;;5070464;28;20028;-81
2021/08/09 07:57:24;;;;;;;3.92;1.67;;;20.40;99.90;;;;;;5072506;28;20020;-80
2021/08/09 07:59:53;;;;;;;3.95;1.83;;;20.60;99.90;;;;;;5071399;28;20086;-81
2021/08/09 08:02:18;;;;;;;4.03;1.90;;;20.70;99.90;;;;;;5071589;28;20066;-80
2021/08/09 08:04:44;;;;;;;3.28;1.75;;;20.80;99.90;;;;;;5071570;28;20037;-80
2021/08/09 08:07:10;;;;;;;2.00;1.70;;;21.10;99.90;;;;;;5071321;28;20378;-80
2021/08/09 08:09:35;;;;;;;2.95;1.85;;;21.30;99.90;;;;;;5069584;28;20020;-80
2021/08/09 08:12:02;;;;;;;4.88;1.63;;;21.30;99.90;;;;;;5070139;28;20083;-81
2021/08/09 08:14:28;;;;;;;2.15;1.60;;;21.40;99.90;;;;;;5071221;28;20032;-81
2021/08/09 08:16:54;;;;;;;4.03;1.73;;;21.70;99.90;;;;;;5073351;28;20051;-81
2021/08/09 08:19:21;;;;;;;3.25;1.90;;;21.70;99.90;;;;;;5070321;28;20550;-80
2021/08/09 08:21:46;;;;;;;3.03;1.83;;;21.60;99.90;;;;;;5069900;28;20035;-81
2021/08/09 08:24:12;;;;;;;3.03;2.10;;;21.20;99.90;;;;;;5052705;28;20029;-81
2021/08/09 08:26:38;;;;;;;4.18;2.30;;;21.30;99.90;;;;;;5069954;28;20165;-81
2021/08/09 08:29:04;;;;;;;2.00;1.80;;;21.20;99.90;;;;;;5072515;28;20170;-81
2021/08/09 08:31:30;;;;;;;4.82;1.90;;;21.20;99.90;;;;;;5071717;28;20524;-81
2021/08/09 08:33:55;;;;;;;3.65;2.20;;;21.60;99.90;;;;;;5070806;28;20107;-80
2021/08/09 08:36:21;;;;;;;3.55;2.20;;;21.50;99.90;;;;;;5071084;28;20042;-81
2021/08/09 08:38:47;;;;;;;3.60;1.90;;;21.60;99.90;;;;;;5070940;28;20108;-81
2021/08/09 08:41:16;;;;;;;4.57;2.45;;;21.60;99.90;;;;;;5052958;28;20036;-81
2021/08/09 08:43:42;;;;;;;2.45;1.83;;;21.60;99.90;;;;;;5072334;28;20105;-80
2021/08/09 08:46:09;;;;;;;3.00;2.08;;;21.60;99.90;;;;;;5070827;28;20039;-81
2021/08/09 08:48:37;;;;;;;3.05;1.85;;;21.50;99.90;;;;;;5070148;28;20024;-80
2021/08/09 08:51:03;;;;;;;3.58;2.10;;;21.50;99.90;;;;;;5070608;28;20052;-80
2021/08/09 08:53:31;;;;;;;3.40;1.80;;;21.40;99.90;;;;;;5070686;28;20070;-81
2021/08/09 08:55:58;;;;;;;3.00;2.15;;;21.60;99.90;;;;;;5071350;28;20040;-81
2021/08/09 08:58:23;;;;;;;3.70;1.80;;;21.50;99.90;;;;;;5069290;28;20048;-81
2021/08/09 09:00:50;;;;;;;2.97;2.00;;;21.80;99.90;;;;;;5069019;28;20452;-81
2021/08/09 09:03:21;;;;;;;4.32;2.03;;;21.90;99.90;;;;;;5070320;28;20052;-81
2021/08/09 09:05:59;;;;;;;5.05;2.15;;;21.90;99.90;;;;;;5070715;28;20101;-80
2021/08/09 09:08:42;;;;;;;2.03;1.65;;;22.20;99.90;;;;;;5070373;28;20037;-80
2021/08/09 09:11:10;;;;;;;2.72;1.95;;;22.30;99.90;;;;;;5070792;28;20048;-80
2021/08/09 09:13:36;;;;;;;7.13;2.17;;;22.20;99.90;;;;;;5071135;28;20067;-80
2021/08/09 09:16:05;;;;;;;4.38;2.00;;;22.30;99.90;;;;;;5052020;28;20097;-80
2021/08/09 09:18:55;;;;;;;4.05;2.13;;;22.40;99.90;;;;;;5070146;28;20032;-81
2021/08/09 09:21:28;;;;;;;2.53;2.08;;;22.70;99.90;;;;;;5069913;28;20385;-81
2021/08/09 09:24:05;;;;;;;4.47;1.90;;;22.80;99.90;;;;;;5069232;28;20032;-81
2021/08/09 09:26:30;;;;;;;3.63;1.83;;;22.80;99.90;;;;;;5070057;28;20036;-81
2021/08/09 09:29:23;;;;;;;3.70;2.13;;;23.30;99.90;;;;;;5071821;28;20500;-81
2021/08/09 09:31:50;;;;;;;2.85;2.00;;;23.50;99.90;;;;;;5070256;28;20028;-80
2021/08/09 09:34:18;;;;;;;4.10;1.98;;;23.30;99.90;;;;;;5070007;28;20171;-81
2021/08/09 09:36:55;;;;;;;5.65;2.45;;;23.30;99.90;;;;;;5068442;28;20028;-81
2021/08/09 09:39:40;;;;;;;3.42;2.38;;;23.30;99.90;;;;;;5068216;28;20024;-81
2021/08/09 09:42:10;;;;;;;4.43;2.20;;;23.50;99.90;;;;;;5069849;28;20032;-81
2021/08/09 09:44:41;;;;;;;4.38;2.20;;;23.80;99.90;;;;;;5054591;28;20021;-81
2021/08/09 09:47:24;;;;;;;4.80;1.90;;;23.80;99.90;;;;;;5070818;28;20045;-81
2021/08/09 09:49:54;;;;;;;3.97;2.00;;;24.00;99.90;;;;;;5070059;28;20477;-81
2021/08/09 09:52:34;;;;;;;3.95;2.35;;;23.90;99.90;;;;;;5069206;28;20043;-81
2021/08/09 09:55:03;;;;;;;3.42;1.98;;;23.80;99.90;;;;;;5067333;28;20028;-81
2021/08/09 09:57:29;;;;;;;3.60;1.90;;;23.90;99.90;;;;;;5069969;28;20020;-81
2021/08/09 09:59:59;;;;;;;2.75;2.03;;;23.80;99.90;;;;;;5069573;28;20020;-81
2021/08/09 10:02:26;;;;;;;3.53;1.95;;;24.10;99.90;;;;;;5069544;28;20045;-81
2021/08/09 10:04:52;;;;;;;3.83;2.00;;;23.90;99.90;;;;;;5071072;28;20021;-80
2021/08/09 10:07:25;;;;;;;4.30;2.13;;;24.00;99.90;;;;;;5069390;28;20533;-80
2021/08/09 10:09:53;;;;;;;3.38;2.17;;;24.10;99.90;;;;;;5068422;28;20081;-81
2021/08/09 10:12:28;;;;;;;4.40;2.50;;;24.50;99.90;;;;;;5069448;28;20093;-81
2021/08/09 10:14:54;;;;;;;4.53;2.20;;;24.40;99.90;;;;;;5050347;28;20393;-81
2021/08/09 10:17:24;;;;;;;3.55;2.15;;;24.90;99.90;;;;;;5069997;28;20024;-82
2021/08/09 10:19:52;;;;;;;4.72;2.10;;;25.10;99.90;;;;;;5069610;28;20508;-81
2021/08/09 10:22:20;;;;;;;2.88;2.03;;;25.20;99.90;;;;;;5069190;28;20512;-81
2021/08/09 10:24:47;;;;;;;3.75;1.92;;;25.40;99.90;;;;;;5068381;28;20028;-81
2021/08/09 10:27:13;;;;;;;2.55;1.92;;;25.50;99.90;;;;;;5069106;28;20063;-81
2021/08/09 10:30:00;;;;;;;5.43;2.30;;;25.60;99.90;;;;;;5069353;28;20052;-81
2021/08/09 10:32:26;;;;;;;2.40;2.00;;;26.00;99.90;;;;;;5069438;28;20549;-81
2021/08/09 10:34:52;;;;;;;3.50;2.00;;;26.00;99.90;;;;;;5070992;28;20029;-81
2021/08/09 10:37:20;;;;;;;4.78;1.92;;;25.80;99.90;;;;;;5069250;28;20029;-81
2021/08/09 10:39:45;;;;;;;2.40;1.60;;;25.90;99.90;;;;;;5067732;28;20024;-81
2021/08/09 10:42:27;;;;;;;2.17;1.80;;;26.30;99.90;;;;;;5069347;28;20033;-81
2021/08/09 10:44:53;;;;;;;4.05;2.00;;;26.50;99.90;;;;;;5069143;28;20032;-81
2021/08/09 10:47:45;;;;;;;3.95;1.70;;;26.50;99.90;;;;;;5068763;28;20471;-81
2021/08/09 10:50:31;;;;;;;1.85;1.63;;;26.70;99.90;;;;;;5055959;28;20051;-81
2021/08/09 10:53:02;;;;;;;2.13;1.60;;;26.90;99.90;;;;;;5060459;28;20385;-82
2021/08/09 10:55:30;;;;;;;2.10;1.48;;;27.40;99.90;;;;;;5066818;28;20034;-81
2021/08/09 10:58:00;;;;;;;2.85;1.60;;;28.20;99.90;;;;;;5068925;28;20028;-81
2021/08/09 11:00:40;;;;;;;3.13;1.67;;;28.20;99.90;;;;;;5068889;28;20029;-81
2021/08/09 11:03:06;;;;;;;3.50;1.40;;;28.90;99.90;;;;;;5069447;28;20032;-81
2021/08/09 11:05:32;;;;;;;4.47;1.67;;;30.50;99.90;;;;;;5069321;28;20420;-81
2021/08/09 11:08:16;;;;;;;2.97;1.50;;;32.40;99.90;;;;;;5071188;28;20629;-82
2021/08/09 11:10:51;;;;;;;2.38;1.60;;;34.80;99.90;;;;;;5069114;28;20120;-81
2021/08/09 11:13:16;;;;;;;2.78;1.40;;;37.50;99.90;;;;;;5072669;28;20109;-81
2021/08/09 11:16:03;;;;;;;2.60;1.60;;;37.20;99.90;;;;;;5072448;28;20055;-81
2021/08/09 11:18:29;;;;;;;1.75;1.50;;;35.10;99.90;;;;;;5072984;28;20032;-81
2021/08/09 11:21:09;;;;;;;1.73;1.50;;;35.60;99.90;;;;;;5071897;28;20032;-81
2021/08/09 11:23:37;;;;;;;2.40;1.70;;;34.80;99.90;;;;;;5057542;28;20025;-82
2021/08/09 11:26:03;;;;;;;3.33;1.80;;;35.00;99.90;;;;;;5071765;28;20032;-81
2021/08/09 11:28:29;;;;;;;1.90;1.58;;;34.70;99.90;;;;;;5072327;28;20491;-82
2021/08/09 11:31:01;;;;;;;3.20;1.80;;;35.60;99.90;;;;;;5072270;28;20048;-82
2021/08/09 11:33:34;;;;;;;1.52;1.38;;;37.10;99.90;;;;;;5070994;28;20048;-82
2021/08/09 11:36:01;;;;;;;1.70;1.50;;;35.90;99.90;;;;;;5070732;28;20017;-82
2021/08/09 11:38:29;;;;;;;2.50;1.58;;;34.60;99.90;;;;;;5071968;28;20518;-82
2021/08/09 11:41:01;;;;;;;3.22;1.52;;;33.60;99.90;;;;;;5073279;28;20031;-82
2021/08/09 11:43:32;;;;;;;2.22;1.45;;;32.40;99.90;;;;;;5072029;28;20047;-82
2021/08/09 11:46:26;;;;;;;2.97;1.50;;;34.50;99.90;;;;;;5071914;28;20037;-81
2021/08/09 11:48:52;;;;;;;2.90;1.38;;;36.70;99.90;;;;;;5058958;28;20043;-81
2021/08/09 11:51:29;;;;;;;4.18;1.45;;;34.70;99.90;;;;;;5072393;28;20040;-82
2021/08/09 11:53:56;;;;;;;2.70;1.60;;;36.90;99.90;;;;;;5072046;28;20044;-82
2021/08/09 11:56:34;;;;;;;1.77;1.45;;;36.00;99.90;;;;;;5071943;28;20518;-82
2021/08/09 11:59:12;;;;;;;3.25;1.70;;;33.30;99.90;;;;;;5073631;28;20020;-82
2021/08/09 12:01:43;;;;;;;2.20;1.55;;;31.80;99.90;;;;;;5072564;28;20119;-82
2021/08/09 12:04:21;;;;;;;2.67;1.58;;;31.40;99.90;;;;;;5087025;22;20105;-79
2021/08/09 12:06:50;;;;;;;2.63;1.30;;;33.10;99.90;;;;;;5076019;28;20049;-79
2021/08/09 12:09:18;;;;;;;2.25;1.60;;;34.00;99.90;;;;;;5074423;28;20024;-79
2021/08/09 12:11:56;;;;;;;2.13;1.45;;;34.10;99.90;;;;;;5071173;28;20024;-79
2021/08/09 12:14:23;;;;;;;1.70;1.23;;;36.10;99.90;;;;;;5055204;28;20404;-79
2021/08/09 12:16:56;;;;;;;2.45;1.30;;;37.10;99.90;;;;;;5075622;28;20116;-79
2021/08/09 12:19:35;;;;;;;3.58;1.25;;;37.10;99.90;;;;;;5076217;28;20062;-79
2021/08/09 12:22:18;;;;;;;2.35;1.40;;;38.20;99.90;;;;;;5075239;28;20028;-79
2021/08/09 12:25:07;;;;;;;3.05;1.30;;;38.30;99.90;;;;;;5072480;28;20028;-80
2021/08/09 12:27:34;;;;;;;2.17;1.35;;;37.60;99.90;;;;;;5057498;28;20494;-79
2021/08/09 12:30:05;;;;;;;1.40;1.17;;;35.10;99.90;;;;;;5056402;28;20119;-79
2021/08/09 12:32:31;;;;;;;1.80;1.40;;;32.90;99.90;;;;;;5071339;28;20025;-79
2021/08/09 12:34:58;;;;;;;3.55;1.55;;;34.30;99.90;;;;;;5077318;28;20021;-79
2021/08/09 12:37:24;;;;;;;1.90;1.70;;;32.80;99.90;;;;;;5073595;28;20445;-79
2021/08/09 12:39:50;;;;;;;1.77;1.45;;;33.80;99.90;;;;;;5075279;28;20096;-79
2021/08/09 12:42:22;;;;;;;4.22;1.40;;;33.50;99.90;;;;;;5075052;28;20365;-79
2021/08/09 12:44:50;;;;;;;1.70;1.60;;;35.60;99.90;;;;;;5071948;28;20733;-79
2021/08/09 12:47:16;;;;;;;2.10;1.50;;;34.40;99.90;;;;;;5073223;28;20036;-79
2021/08/09 12:49:43;;;;;;;2.03;1.50;;;35.40;99.90;;;;;;5076759;28;20134;-79
2021/08/09 12:52:08;;;;;;;2.60;1.50;;;35.10;99.90;;;;;;5073441;28;20464;-79
2021/08/09 12:54:34;;;;;;;3.13;1.80;;;33.70;99.90;;;;;;5070648;28;20046;-79
2021/08/09 12:57:00;;;;;;;2.97;1.60;;;33.80;99.90;;;;;;5073867;28;20028;-79
2021/08/09 12:59:28;;;;;;;3.78;2.10;;;33.40;99.90;;;;;;5071379;28;20082;-79